createdAt,value
2018-12-14T00:00:03.904Z,-0.20
2018-12-14T00:02:32.936Z,-0.20
2018-12-14T00:05:01.462Z,-0.20
2018-12-14T00:07:29.854Z,-0.20
2018-12-14T00:09:58.279Z,-0.20
2018-12-14T00:12:26.704Z,-0.30
2018-12-14T00:14:55.114Z,-0.30
2018-12-14T00:17:23.788Z,-0.20
2018-12-14T00:19:52.191Z,-0.20
2018-12-14T00:22:20.593Z,-0.20
2018-12-14T00:24:49.000Z,-0.20
2018-12-14T00:27:17.885Z,-0.30
2018-12-14T00:29:46.407Z,-0.30
2018-12-14T00:32:15.498Z,-0.20
2018-12-14T00:34:43.966Z,-0.30
2018-12-14T00:37:12.375Z,-0.20
2018-12-14T00:39:40.791Z,-0.30
2018-12-14T00:42:09.199Z,-0.30
2018-12-14T00:44:37.782Z,-0.40
2018-12-14T00:47:07.380Z,-0.50
2018-12-14T00:49:36.044Z,-0.50
2018-12-14T00:52:04.598Z,-0.50
2018-12-14T00:54:33.063Z,-0.50
2018-12-14T00:57:01.525Z,-0.60
2018-12-14T00:59:29.919Z,-0.60
2018-12-14T01:01:58.418Z,-0.60
2018-12-14T01:04:26.949Z,-0.60
2018-12-14T01:06:55.368Z,-0.60
2018-12-14T01:09:23.795Z,-0.70
2018-12-14T01:11:58.057Z,-0.70
2018-12-14T01:14:22.618Z,-0.70
2018-12-14T01:16:51.088Z,-0.70
2018-12-14T01:19:19.521Z,-0.70
2018-12-14T01:21:47.923Z,-0.70
2018-12-14T01:24:16.336Z,-0.80
2018-12-14T01:26:44.760Z,-0.80
2018-12-14T01:29:13.181Z,-0.80
2018-12-14T01:31:41.588Z,-0.80
2018-12-14T01:34:10.303Z,-0.80
2018-12-14T01:36:38.806Z,-0.80
2018-12-14T01:39:08.244Z,-0.80
2018-12-14T01:41:36.673Z,-0.90
2018-12-14T01:44:05.075Z,-0.90
2018-12-14T01:46:33.556Z,-0.90
2018-12-14T01:49:01.999Z,-0.90
2018-12-14T01:51:30.520Z,-0.90
2018-12-14T01:53:58.952Z,-1.00
2018-12-14T01:56:27.377Z,-1.00
2018-12-14T01:58:55.808Z,-1.00
2018-12-14T02:01:24.259Z,-1.10
2018-12-14T02:03:52.748Z,-1.10
2018-12-14T02:06:21.191Z,-1.10
2018-12-14T02:08:49.655Z,-1.10
2018-12-14T02:11:18.207Z,-1.10
2018-12-14T02:13:46.602Z,-1.20
2018-12-14T02:16:15.020Z,-1.20
2018-12-14T02:18:43.527Z,-1.20
2018-12-14T02:21:11.943Z,-1.30
2018-12-14T02:23:40.351Z,-1.20
2018-12-14T02:26:08.765Z,-1.20
2018-12-14T02:28:37.175Z,-1.20
2018-12-14T02:31:05.599Z,-1.20
2018-12-14T02:33:34.011Z,-1.20
2018-12-14T02:36:02.415Z,-1.20
2018-12-14T02:38:30.917Z,-1.20
2018-12-14T02:40:59.445Z,-1.10
2018-12-14T02:43:27.956Z,-1.10
2018-12-14T02:45:56.391Z,-1.00
2018-12-14T02:48:24.960Z,-1.00
2018-12-14T02:50:53.418Z,-0.90
2018-12-14T02:53:21.880Z,-0.90
2018-12-14T02:55:50.275Z,-0.80
2018-12-14T02:58:18.685Z,-0.80
2018-12-14T03:00:47.101Z,-0.70
2018-12-14T03:03:15.585Z,-0.60
2018-12-14T03:05:43.999Z,-0.60
2018-12-14T03:08:12.436Z,-0.50
2018-12-14T03:10:40.877Z,-0.40
2018-12-14T03:13:09.277Z,-0.40
2018-12-14T03:15:37.700Z,-0.30
2018-12-14T03:18:06.125Z,-0.30
2018-12-14T03:20:34.641Z,-0.20
2018-12-14T03:23:03.061Z,-0.10
2018-12-14T03:25:31.488Z,-0.10
2018-12-14T03:27:59.912Z,-0.10
2018-12-14T03:30:28.468Z,-0.10
2018-12-14T03:32:56.897Z,-0.10
2018-12-14T03:35:25.308Z,-0.20
2018-12-14T03:37:53.749Z,-0.30
2018-12-14T03:40:22.174Z,-0.30
2018-12-14T03:42:50.595Z,-0.40
2018-12-14T03:45:19.141Z,-0.50
2018-12-14T03:47:47.564Z,-0.50
2018-12-14T03:50:16.027Z,-0.50
2018-12-14T03:52:44.435Z,-0.60
2018-12-14T03:55:12.956Z,-0.60
2018-12-14T03:57:41.392Z,-0.60
2018-12-14T04:00:11.171Z,-0.60
2018-12-14T04:02:39.598Z,-0.60
2018-12-14T04:05:08.191Z,-0.60
2018-12-14T04:07:36.608Z,-0.50
2018-12-14T04:10:05.728Z,-0.40
2018-12-14T04:12:41.291Z,-0.40
2018-12-14T04:15:05.383Z,-0.30
2018-12-14T04:17:33.794Z,-0.30
2018-12-14T04:20:02.593Z,-0.30
2018-12-14T04:22:31.163Z,-0.20
2018-12-14T04:24:59.851Z,-0.10
2018-12-14T04:27:28.544Z,-0.10
2018-12-14T04:29:56.951Z,0.00
2018-12-14T04:32:25.355Z,0.00
2018-12-14T04:34:53.740Z,0.00
2018-12-14T04:37:22.136Z,0.00
2018-12-14T04:39:50.526Z,0.10
2018-12-14T04:42:19.037Z,0.20
2018-12-14T04:44:47.547Z,0.10
2018-12-14T04:47:16.958Z,0.20
2018-12-14T04:49:45.761Z,0.20
2018-12-14T04:52:14.259Z,0.30
2018-12-14T04:54:42.677Z,0.30
2018-12-14T04:57:11.160Z,0.20
2018-12-14T04:59:39.565Z,0.20
2018-12-14T05:02:08.242Z,0.10
2018-12-14T05:04:36.845Z,0.10
2018-12-14T05:07:05.272Z,0.00
2018-12-14T05:09:33.856Z,-0.10
2018-12-14T05:12:02.276Z,-0.20
2018-12-14T05:14:30.656Z,-0.10
2018-12-14T05:16:59.141Z,-0.10
2018-12-14T05:19:27.589Z,-0.10
2018-12-14T05:21:56.335Z,0.00
2018-12-14T05:24:24.759Z,0.10
2018-12-14T05:26:53.984Z,0.20
2018-12-14T05:29:22.417Z,0.30
2018-12-14T05:31:50.919Z,0.50
2018-12-14T05:34:19.373Z,0.50
2018-12-14T05:36:47.768Z,0.60
2018-12-14T05:39:16.210Z,0.70
2018-12-14T05:41:44.601Z,0.70
2018-12-14T05:44:13.031Z,0.70
2018-12-14T05:46:41.536Z,0.80
2018-12-14T05:49:09.935Z,0.80
2018-12-14T05:51:38.415Z,0.80
2018-12-14T05:54:06.940Z,0.90
2018-12-14T05:56:35.467Z,1.00
2018-12-14T05:59:03.887Z,1.10
2018-12-14T06:01:32.389Z,1.10
2018-12-14T06:04:00.915Z,1.10
2018-12-14T06:06:29.334Z,1.00
2018-12-14T06:08:57.978Z,1.10
2018-12-14T06:11:26.570Z,1.10
2018-12-14T06:13:55.001Z,1.20
2018-12-14T06:16:23.401Z,1.20
2018-12-14T06:18:51.944Z,1.10
2018-12-14T06:21:20.350Z,1.10
2018-12-14T06:23:48.871Z,1.10
2018-12-14T06:26:17.256Z,1.00
2018-12-14T06:28:45.761Z,1.00
2018-12-14T06:31:14.222Z,1.00
2018-12-14T06:33:42.656Z,1.00
2018-12-14T06:36:11.055Z,1.00
2018-12-14T06:38:39.467Z,1.00
2018-12-14T06:41:07.930Z,1.10
2018-12-14T06:43:36.364Z,1.10
2018-12-14T06:46:04.788Z,1.10
2018-12-14T06:48:33.229Z,1.10
2018-12-14T06:51:02.060Z,1.10
2018-12-14T06:53:30.464Z,1.10
2018-12-14T06:55:58.866Z,1.10
2018-12-14T06:58:27.259Z,1.10
2018-12-14T07:00:55.716Z,1.20
2018-12-14T07:03:24.131Z,1.20
2018-12-14T07:05:52.519Z,1.20
2018-12-14T07:08:20.974Z,1.20
2018-12-14T07:10:49.379Z,1.20
2018-12-14T07:13:21.927Z,1.20
2018-12-14T07:15:48.224Z,1.20
2018-12-14T07:18:16.660Z,1.20
2018-12-14T07:20:45.383Z,1.20
2018-12-14T07:23:13.887Z,1.20
2018-12-14T07:25:42.284Z,1.20
2018-12-14T07:28:10.668Z,1.20
2018-12-14T07:30:39.207Z,1.20
2018-12-14T07:33:07.612Z,1.30
2018-12-14T07:35:41.756Z,1.30
2018-12-14T07:38:06.464Z,1.40
2018-12-14T07:40:34.951Z,1.30
2018-12-14T07:43:03.491Z,1.30
2018-12-14T07:45:31.909Z,1.30
2018-12-14T07:48:00.313Z,1.30
2018-12-14T07:50:28.732Z,1.30
2018-12-14T07:52:58.789Z,1.30
2018-12-14T07:55:27.442Z,1.30
2018-12-14T07:57:55.864Z,1.30
2018-12-14T08:00:24.299Z,1.40
2018-12-14T08:02:52.739Z,1.40
2018-12-14T08:05:21.257Z,1.40
2018-12-14T08:07:49.695Z,1.40
2018-12-14T08:10:18.259Z,1.40
2018-12-14T08:12:47.063Z,1.40
2018-12-14T08:15:16.011Z,1.40
2018-12-14T08:17:44.429Z,1.50
2018-12-14T08:20:17.067Z,1.50
2018-12-14T08:22:43.306Z,1.50
2018-12-14T08:25:11.804Z,1.50
2018-12-14T08:27:40.224Z,1.50
2018-12-14T08:30:08.996Z,1.50
2018-12-14T08:32:37.438Z,1.50
2018-12-14T08:35:06.078Z,1.60
2018-12-14T08:37:34.537Z,1.70
2018-12-14T08:40:03.037Z,1.70
2018-12-14T08:42:32.482Z,1.70
2018-12-14T08:45:00.900Z,1.80
2018-12-14T08:47:29.305Z,1.70
2018-12-14T08:49:57.757Z,1.80
2018-12-14T08:52:26.217Z,1.90
2018-12-14T08:54:54.639Z,1.90
2018-12-14T08:57:23.069Z,1.90
2018-12-14T08:59:51.535Z,2.00
2018-12-14T09:02:19.987Z,2.00
2018-12-14T09:04:48.467Z,2.10
2018-12-14T09:07:16.961Z,2.10
2018-12-14T09:09:45.371Z,2.20
2018-12-14T09:12:13.841Z,2.20
2018-12-14T09:14:42.255Z,2.20
2018-12-14T09:17:10.667Z,2.20
2018-12-14T09:19:39.089Z,2.30
2018-12-14T09:22:07.608Z,2.30
2018-12-14T09:24:36.071Z,2.30
2018-12-14T09:27:04.484Z,2.30
2018-12-14T09:29:32.875Z,2.40
2018-12-14T09:32:01.428Z,2.40
2018-12-14T09:34:29.843Z,2.60
2018-12-14T09:36:58.315Z,2.60
2018-12-14T09:39:26.715Z,2.70
2018-12-14T09:41:55.159Z,2.70
2018-12-14T09:44:23.576Z,2.70
2018-12-14T09:46:51.990Z,2.80
2018-12-14T09:49:20.431Z,2.80
2018-12-14T09:51:48.838Z,2.80
2018-12-14T09:54:17.240Z,2.80
2018-12-14T09:56:45.674Z,2.70
2018-12-14T09:59:14.152Z,2.70
2018-12-14T10:01:42.644Z,2.90
2018-12-14T10:04:11.056Z,2.90
2018-12-14T10:06:40.714Z,2.90
2018-12-14T10:09:09.326Z,2.90
2018-12-14T10:11:37.716Z,2.80
2018-12-14T10:14:06.127Z,2.80
2018-12-14T10:16:34.603Z,2.80
2018-12-14T10:19:03.541Z,2.90
2018-12-14T10:21:31.950Z,3.00
2018-12-14T10:24:00.411Z,3.00
2018-12-14T10:26:28.833Z,3.10
2018-12-14T10:28:58.669Z,3.00
2018-12-14T10:31:27.286Z,3.00
2018-12-14T10:33:55.679Z,3.00
2018-12-14T10:36:24.172Z,3.10
2018-12-14T10:38:52.747Z,3.10
2018-12-14T10:41:21.152Z,3.20
2018-12-14T10:43:49.584Z,3.20
2018-12-14T10:46:18.194Z,3.20
2018-12-14T10:48:46.599Z,3.20
2018-12-14T10:51:14.991Z,3.20
2018-12-14T10:53:43.407Z,3.20
2018-12-14T10:56:11.845Z,3.30
2018-12-14T10:58:40.265Z,3.40
2018-12-14T11:01:14.440Z,3.50
2018-12-14T11:03:43.028Z,3.50
2018-12-14T11:06:11.462Z,3.50
2018-12-14T11:08:39.879Z,3.50
2018-12-14T11:11:08.292Z,3.50
2018-12-14T11:13:36.727Z,3.50
2018-12-14T11:16:05.157Z,3.50
2018-12-14T11:18:33.660Z,3.50
2018-12-14T11:21:02.199Z,3.60
2018-12-14T11:23:30.620Z,3.70
2018-12-14T11:25:59.041Z,3.70
2018-12-14T11:28:27.551Z,3.60
2018-12-14T11:30:55.973Z,3.60
2018-12-14T11:33:24.373Z,3.70
2018-12-14T11:35:53.252Z,3.70
2018-12-14T11:38:22.028Z,3.70
2018-12-14T11:40:50.461Z,3.60
2018-12-14T11:43:19.019Z,3.60
2018-12-14T11:45:47.640Z,3.50
2018-12-14T11:48:16.084Z,3.50
2018-12-14T11:50:44.662Z,3.60
2018-12-14T11:53:17.849Z,3.50
2018-12-14T11:55:46.300Z,3.50
2018-12-14T11:58:15.281Z,3.50
2018-12-14T12:00:43.810Z,3.50
2018-12-14T12:03:12.374Z,3.60
2018-12-14T12:05:43.072Z,3.60
2018-12-14T12:08:13.240Z,3.70
2018-12-14T12:10:41.838Z,3.70
2018-12-14T12:13:10.231Z,3.80
2018-12-14T12:15:38.799Z,3.70
2018-12-14T12:18:07.355Z,3.60
2018-12-14T12:20:35.762Z,3.70
2018-12-14T12:23:04.206Z,3.70
2018-12-14T12:25:32.722Z,3.70
2018-12-14T12:28:01.113Z,3.70
2018-12-14T12:30:29.536Z,3.70
2018-12-14T12:32:57.941Z,3.70
2018-12-14T12:35:26.409Z,3.70
2018-12-14T12:37:54.928Z,3.60
2018-12-14T12:40:23.404Z,3.60
2018-12-14T12:42:51.829Z,3.70
2018-12-14T12:45:20.342Z,3.70
2018-12-14T12:47:48.886Z,3.70
2018-12-14T12:50:17.299Z,3.80
2018-12-14T12:52:45.717Z,3.70
2018-12-14T12:55:14.228Z,3.70
2018-12-14T12:57:42.640Z,3.80
2018-12-14T13:00:18.395Z,3.90
2018-12-14T13:02:46.876Z,4.00
2018-12-14T13:05:15.324Z,4.00
2018-12-14T13:07:43.737Z,4.00
2018-12-14T13:10:12.277Z,4.20
2018-12-14T13:12:40.701Z,4.60
2018-12-14T13:15:09.432Z,4.70
2018-12-14T13:17:37.961Z,4.60
2018-12-14T13:20:06.499Z,4.60
2018-12-14T13:22:34.936Z,4.60
2018-12-14T13:25:03.437Z,4.50
2018-12-14T13:27:31.858Z,4.40
2018-12-14T13:30:00.333Z,4.40
2018-12-14T13:32:28.761Z,4.30
2018-12-14T13:34:57.157Z,4.30
2018-12-14T13:37:25.681Z,4.60
2018-12-14T13:39:54.158Z,4.80
2018-12-14T13:42:22.582Z,4.80
2018-12-14T13:44:51.410Z,4.70
2018-12-14T13:47:19.945Z,4.50
2018-12-14T13:49:48.497Z,4.40
2018-12-14T13:52:16.935Z,4.20
2018-12-14T13:54:45.350Z,4.10
2018-12-14T13:57:13.775Z,4.00
2018-12-14T13:59:42.213Z,4.00
2018-12-14T14:02:10.654Z,3.90
2018-12-14T14:04:39.079Z,4.00
2018-12-14T14:07:07.512Z,3.90
2018-12-14T14:09:36.067Z,3.80
2018-12-14T14:12:04.492Z,3.70
2018-12-14T14:14:32.979Z,3.70
2018-12-14T14:17:01.591Z,3.80
2018-12-14T14:19:30.247Z,3.70
2018-12-14T14:21:58.674Z,3.70
2018-12-14T14:24:27.236Z,3.50
2018-12-14T14:26:55.664Z,3.50
2018-12-14T14:29:24.095Z,3.40
2018-12-14T14:31:52.504Z,3.40
2018-12-14T14:34:21.863Z,3.30
2018-12-14T14:36:52.063Z,3.30
2018-12-14T14:39:22.151Z,3.20
2018-12-14T14:41:50.675Z,3.20
2018-12-14T14:44:19.176Z,3.30
2018-12-14T14:46:47.589Z,3.20
2018-12-14T14:49:16.069Z,3.20
2018-12-14T14:51:45.041Z,3.10
2018-12-14T14:54:14.135Z,3.20
2018-12-14T14:56:42.811Z,3.20
2018-12-14T14:59:11.255Z,3.20
2018-12-14T15:01:39.693Z,3.10
2018-12-14T15:04:08.183Z,3.10
2018-12-14T15:06:36.603Z,3.10
2018-12-14T15:09:07.250Z,3.00
2018-12-14T15:11:35.738Z,3.10
2018-12-14T15:14:04.201Z,3.00
2018-12-14T15:16:32.655Z,3.00
2018-12-14T15:19:01.101Z,3.00
2018-12-14T15:21:29.528Z,3.00
2018-12-14T15:23:58.075Z,3.00
2018-12-14T15:26:26.645Z,3.00
2018-12-14T15:28:55.067Z,3.00
2018-12-14T15:31:23.531Z,3.00
2018-12-14T15:33:52.031Z,3.00
2018-12-14T15:36:20.505Z,3.00
2018-12-14T15:38:48.959Z,3.00
2018-12-14T15:41:17.447Z,2.90
2018-12-14T15:43:46.009Z,2.90
2018-12-14T15:46:14.553Z,3.00
2018-12-14T15:48:43.380Z,2.90
2018-12-14T15:51:11.857Z,2.90
2018-12-14T15:53:40.362Z,2.90
2018-12-14T15:56:08.834Z,2.90
2018-12-14T15:58:37.383Z,3.00
2018-12-14T16:01:06.040Z,3.00
2018-12-14T16:03:34.540Z,3.00
2018-12-14T16:06:02.994Z,3.00
2018-12-14T16:08:31.429Z,3.00
2018-12-14T16:10:59.866Z,2.90
2018-12-14T16:13:28.314Z,2.90
2018-12-14T16:15:56.916Z,2.90
2018-12-14T16:18:25.381Z,2.90
2018-12-14T16:20:53.864Z,2.80
2018-12-14T16:23:22.409Z,2.90
2018-12-14T16:25:50.899Z,2.80
2018-12-14T16:28:19.332Z,2.80
2018-12-14T16:30:47.966Z,2.80
2018-12-14T16:33:16.413Z,2.80
2018-12-14T16:35:45.032Z,2.80
2018-12-14T16:38:13.781Z,2.70
2018-12-14T16:40:42.329Z,2.70
2018-12-14T16:43:10.764Z,2.70
2018-12-14T16:45:39.524Z,2.70
2018-12-14T16:48:08.209Z,2.70
2018-12-14T16:50:36.656Z,2.80
2018-12-14T16:53:05.123Z,2.70
2018-12-14T16:55:33.620Z,2.80
2018-12-14T16:58:02.081Z,2.80
2018-12-14T17:00:30.898Z,2.70
2018-12-14T17:02:59.478Z,2.70
2018-12-14T17:05:27.935Z,2.70
2018-12-14T17:07:56.385Z,2.70
2018-12-14T17:10:26.191Z,2.70
2018-12-14T17:12:54.696Z,2.70
2018-12-14T17:15:23.162Z,2.70
2018-12-14T17:17:51.623Z,2.80
2018-12-14T17:20:20.116Z,2.80
2018-12-14T17:22:48.666Z,2.80
2018-12-14T17:25:17.104Z,2.80
2018-12-14T17:27:45.772Z,2.80
2018-12-14T17:30:14.368Z,2.80
2018-12-14T17:32:42.839Z,2.90
2018-12-14T17:35:11.544Z,2.90
2018-12-14T17:37:40.063Z,2.90
2018-12-14T17:40:08.802Z,2.80
2018-12-14T17:42:37.241Z,2.90
2018-12-14T17:45:05.871Z,3.00
2018-12-14T17:47:34.297Z,2.90
2018-12-14T17:50:02.856Z,2.90
2018-12-14T17:52:31.307Z,2.90
2018-12-14T17:54:59.722Z,2.90
2018-12-14T17:57:28.158Z,2.80
2018-12-14T17:59:56.586Z,2.80
2018-12-14T18:02:25.263Z,2.80
2018-12-14T18:04:53.812Z,2.70
2018-12-14T18:07:22.309Z,2.70
2018-12-14T18:09:50.727Z,2.70
2018-12-14T18:12:19.155Z,2.70
2018-12-14T18:14:48.271Z,2.80
2018-12-14T18:17:16.840Z,2.80
2018-12-14T18:19:45.352Z,2.80
2018-12-14T18:22:14.676Z,2.80
2018-12-14T18:24:43.103Z,2.80
2018-12-14T18:27:11.523Z,2.80
2018-12-14T18:29:40.110Z,2.80
2018-12-14T18:32:08.542Z,2.70
2018-12-14T18:34:36.959Z,2.70
2018-12-14T18:37:05.462Z,2.70
2018-12-14T18:39:33.911Z,2.70
2018-12-14T18:42:02.351Z,2.70
2018-12-14T18:44:30.850Z,2.70
2018-12-14T18:46:59.301Z,2.60
2018-12-14T18:49:27.712Z,2.60
2018-12-14T18:51:56.168Z,2.60
2018-12-14T18:54:24.596Z,2.60
2018-12-14T18:56:53.018Z,2.60
2018-12-14T18:59:21.621Z,2.60
2018-12-14T19:01:50.049Z,2.60
2018-12-14T19:04:18.588Z,2.50
2018-12-14T19:06:47.136Z,2.50
2018-12-14T19:09:22.290Z,2.50
2018-12-14T19:11:50.719Z,2.50
2018-12-14T19:14:19.161Z,2.50
2018-12-14T19:16:47.645Z,2.50
2018-12-14T19:19:16.196Z,2.50
2018-12-14T19:21:44.626Z,2.50
2018-12-14T19:24:13.102Z,2.50
2018-12-14T19:26:41.620Z,2.40
2018-12-14T19:29:10.075Z,2.30
2018-12-14T19:31:38.632Z,2.20
2018-12-14T19:34:07.082Z,2.20
2018-12-14T19:36:35.522Z,2.10
2018-12-14T19:39:05.685Z,2.10
2018-12-14T19:41:34.102Z,2.10
2018-12-14T19:44:02.554Z,2.10
2018-12-14T19:46:31.057Z,2.00
2018-12-14T19:48:59.515Z,2.00
2018-12-14T19:51:27.945Z,2.10
2018-12-14T19:53:56.391Z,2.10
2018-12-14T19:56:24.863Z,2.00
2018-12-14T19:58:53.450Z,2.00
2018-12-14T20:01:22.004Z,1.90
2018-12-14T20:03:50.445Z,1.90
2018-12-14T20:06:18.925Z,1.80
2018-12-14T20:08:47.330Z,1.70
2018-12-14T20:11:15.807Z,1.60
2018-12-14T20:13:44.311Z,1.60
2018-12-14T20:16:13.020Z,1.50
2018-12-14T20:18:41.590Z,1.40
2018-12-14T20:21:10.024Z,1.40
2018-12-14T20:23:38.475Z,1.30
2018-12-14T20:26:06.954Z,1.30
2018-12-14T20:28:35.354Z,1.20
2018-12-14T20:31:03.889Z,1.10
2018-12-14T20:33:32.290Z,1.10
2018-12-14T20:36:00.697Z,1.00
2018-12-14T20:38:29.211Z,1.00
2018-12-14T20:40:57.653Z,0.90
2018-12-14T20:43:26.121Z,0.90
2018-12-14T20:45:54.561Z,0.90
2018-12-14T20:48:23.011Z,0.90
2018-12-14T20:50:51.451Z,0.90
2018-12-14T20:53:19.918Z,1.00
2018-12-14T20:55:48.448Z,1.00
2018-12-14T20:58:16.891Z,1.00
2018-12-14T21:00:45.395Z,0.90
2018-12-14T21:03:13.823Z,0.90
2018-12-14T21:05:42.250Z,0.90
2018-12-14T21:08:10.708Z,0.90
2018-12-14T21:10:39.169Z,1.00
2018-12-14T21:13:08.653Z,1.00
2018-12-14T21:15:37.119Z,1.00
2018-12-14T21:18:05.708Z,1.00
2018-12-14T21:20:34.189Z,1.10
2018-12-14T21:23:02.617Z,1.10
2018-12-14T21:25:31.075Z,1.10
2018-12-14T21:27:59.517Z,1.10
2018-12-14T21:30:27.916Z,1.30
2018-12-14T21:32:56.339Z,1.40
2018-12-14T21:35:24.749Z,1.60
2018-12-14T21:37:53.231Z,1.70
2018-12-14T21:40:21.657Z,1.80
2018-12-14T21:42:50.090Z,2.00
2018-12-14T21:45:18.531Z,2.10
2018-12-14T21:47:46.938Z,2.20
2018-12-14T21:50:15.403Z,2.30
2018-12-14T21:52:43.815Z,2.20
2018-12-14T21:55:12.250Z,2.20
2018-12-14T21:57:40.688Z,2.20
2018-12-14T22:00:11.143Z,2.20
2018-12-14T22:02:39.541Z,2.20
2018-12-14T22:05:08.875Z,2.20
2018-12-14T22:07:37.449Z,2.30
2018-12-14T22:10:06.994Z,2.30
2018-12-14T22:12:35.414Z,2.20
2018-12-14T22:15:04.240Z,2.30
2018-12-14T22:17:32.781Z,2.20
2018-12-14T22:20:01.191Z,2.20
2018-12-14T22:22:29.834Z,2.20
2018-12-14T22:24:58.235Z,2.20
2018-12-14T22:27:26.644Z,2.30
2018-12-14T22:29:55.078Z,2.30
2018-12-14T22:32:23.514Z,2.30
2018-12-14T22:34:51.928Z,2.30
2018-12-14T22:37:20.361Z,2.30
2018-12-14T22:39:49.119Z,2.20
2018-12-14T22:42:17.579Z,2.20
2018-12-14T22:44:46.124Z,2.30
2018-12-14T22:47:14.711Z,2.40
2018-12-14T22:49:43.136Z,2.40
2018-12-14T22:52:11.577Z,2.40
2018-12-14T22:54:39.984Z,2.30
2018-12-14T22:57:08.444Z,2.40
2018-12-14T22:59:36.907Z,2.40
2018-12-14T23:02:05.508Z,2.40
2018-12-14T23:04:33.925Z,2.30
2018-12-14T23:07:02.360Z,2.30
2018-12-14T23:09:30.783Z,2.30
2018-12-14T23:11:59.216Z,2.20
2018-12-14T23:14:27.665Z,2.20
2018-12-14T23:16:56.075Z,2.20
2018-12-14T23:19:24.492Z,2.30
2018-12-14T23:21:52.961Z,2.20
2018-12-14T23:24:21.528Z,2.20
2018-12-14T23:26:49.959Z,2.20
2018-12-14T23:29:18.557Z,2.30
2018-12-14T23:31:46.956Z,2.30
2018-12-14T23:34:15.424Z,2.40
2018-12-14T23:36:43.845Z,2.30
2018-12-14T23:39:12.223Z,2.40
2018-12-14T23:41:40.645Z,2.40
2018-12-14T23:44:09.084Z,2.40
2018-12-14T23:46:37.495Z,2.30
2018-12-14T23:49:05.883Z,2.30
2018-12-14T23:51:34.435Z,2.20
2018-12-14T23:54:02.837Z,2.20
2018-12-14T23:56:31.267Z,2.20
2018-12-14T23:58:59.713Z,2.20
